Archival Weather

Sydney Intl

Sydney, Australia (YSSY)

Report from: Wednesday, September 20, 2023 7:00 PM AEST
Current time: Monday, June 17, 2024 9:48 PM AEST

Current weather – Weather history – Daily summaries
Weather forecast

Temperature31.0°C (87.8°F)
Heat index28.9°C (84.1°F)
Dew point-1.0°C (30.2°F)
Winds 9 kts (4.6 m/s, 10.4 mph) West-Northwest (300°)
Clouds Sky clear
Altimeter29.74 in.Hg (1007 mB)
Relative humidity13 %
Density altitude2,132 ft. (650 m)
Remarks Ceiling and visibility OK
Flight conditions Visual Meteorological Conditions
Raw dataYSSY 200900Z 30009KT CAVOK 31/M01 Q1007
An error has occurred. This application may no longer respond until reloaded. Reload 🗙